• Join FlightAware (Why Join?)
  • Login
  • US Flag 
07:46AM EST


 

Airport Tracker/Info


-or-


 

Live Flight TrackerFlight Track Log ✈ AIP32 ✈ 27-Feb-2014 ✈ KBIL - KMSO

Flight Track Log - Related Links

Times and Time Zones

All times are in EST time to prevent confusion due to time zone crossing. See the AIP32 flight status page for this flight to view local times or setup timezone preferences in your user account.

Time Position Orientation Groundspeed Altitude Reporting Facility
EST Latitude Longitude Course Direction KTS MPH feet Rate Location/Type
11:37PM 45.8292 -108.6497 287° West 132 152 6,600  Level Salt Lake Center
11:38PM 45.8439 -108.7025 292° West 143 165 7,700 960 Climbing Salt Lake Center
11:39PM 45.8608 -108.7536 295° West 143 165 8,600 780 Climbing Salt Lake Center
11:40PM 45.8736 -108.8144 287° West 149 171 9,400 720 Climbing Salt Lake Center
11:41PM 45.9035 -108.9937 287° West  Level FlightAware Approximate
11:41PM 45.8856 -108.8664 288° West 140 161 10,100  Level Salt Lake Center
11:42PM 45.9195 -109.0684 287° West  Level FlightAware Approximate
11:42PM 45.9003 -108.9192 292° West 143 165 10,900  Level Salt Lake Center
11:43PM 45.9158 -108.9744 292° West 139 160 11,700 600 Climbing Salt Lake Center
11:44PM 45.9289 -109.0278 289° West 142 163 12,200 420 Climbing Salt Lake Center
11:45PM 45.9389 -109.0831 285° West 145 167 12,600 240 Climbing Salt Lake Center
11:46PM 45.9508 -109.1450 286° West 157 181 12,800 240 Climbing Salt Lake Center
11:47PM 45.9561 -109.2050 277° West 157 181 13,200 480 Climbing Salt Lake Center
11:48PM 45.9708 -109.2703 288° West 159 183 13,800 360 Climbing Salt Lake Center
11:49PM 45.9853 -109.3328 288° West 166 191 14,000 60 Climbing Salt Lake Center
11:50PM 45.9989 -109.4022 286° West 180 207 14,000  Level Salt Lake Center
11:51PM 46.0147 -109.4769 287° West 182 209 14,100  Climbing Salt Lake Center
11:52PM 46.0328 -109.5439 291° West 182 209 14,100  Level Salt Lake Center
11:53PM 46.0500 -109.6150 289° West 190 219 14,100 -60 Level Salt Lake Center
11:54PM 46.0697 -109.6883 291° West 184 212 14,000  Descending Salt Lake Center
11:55PM 46.0861 -109.7619 288° West 194 223 14,200 60 Climbing Salt Lake Center
11:56PM 46.1089 -109.8317 295° West 185 213 14,200  Level Salt Lake Center
11:57PM 46.1194 -109.9089 281° West 190 219 14,200 -120 Level Salt Lake Center
11:58PM 46.1369 -109.9797 290° West 190 219 14,000 -120 Descending Salt Lake Center
11:59PM 46.1525 -110.0531 287° West 190 219 14,000 -120 Level Salt Lake Center
12:00AM 46.1683 -110.1294 287° West 193 222 13,800  Descending Salt Lake Center
12:01AM 46.1831 -110.2042 286° West 195 224 14,000  Climbing Salt Lake Center
12:09AM 46.3000 -110.8067 287° West 201 231 14,000  Level Salt Lake Center
12:10AM 46.3001 -110.8424 288° West  Level FlightAware Approximate
12:10AM 46.3081 -110.8769 279° West 190 219 14,000  Level Salt Lake Center
12:11AM 46.3168 -110.9173 287° West  Level FlightAware Approximate
12:11AM 46.3322 -110.9678 291° West 208 239 13,900  Level Salt Lake Center
12:13AM 46.3633 -111.1214 286° West 197 227 13,900 -60 Level Salt Lake Center
12:14AM 46.3634 -111.1437 287° West  Level FlightAware Approximate
12:14AM 46.3825 -111.1992 290° West 201 231 13,800  Level Salt Lake Center
12:15AM 46.4017 -111.2764 290° West 201 231 13,900  Climbing Salt Lake Center
12:16AM 46.4197 -111.3517 289° West 196 226 13,900  Level Salt Lake Center
12:17AM 46.4344 -111.4317 285° West 202 232 13,900  Level Salt Lake Center
12:18AM 46.4431 -111.5119 279° West 201 231 14,000  Climbing Salt Lake Center
12:19AM 46.4614 -111.5897 289° West 206 237 13,900 -60 Descending Salt Lake Center
12:20AM 46.4686 -111.6700 277° West 201 231 13,900  Level Salt Lake Center
12:21AM 46.4917 -111.7439 294° West 204 235 13,900  Level Salt Lake Center
12:22AM 46.5128 -111.8181 292° West 200 230 14,000  Climbing Salt Lake Center
12:23AM 46.5428 -111.8878 302° West 204 235 14,000  Level Salt Lake Center
12:24AM 46.5739 -111.9528 305° West 198 228 14,000  Level Salt Lake Center
12:25AM 46.6022 -112.0194 302° West 198 228 14,100  Climbing Salt Lake Center
12:26AM 46.6269 -112.0903 297° West 198 228 14,100 -120 Level Salt Lake Center
12:27AM 46.6592 -112.1767 299° West 202 232 13,900  Descending Salt Lake Center
12:28AM 46.6814 -112.2492 294° West 198 228 14,100  Climbing Salt Lake Center
12:29AM 46.7061 -112.3200 297° West 198 228 14,000 -60 Descending Salt Lake Center
12:31AM 46.7347 -112.3900 301° West 201 231 14,000  Level Salt Lake Center
12:32AM 46.7592 -112.4633 296° West 201 231 14,000  Level Salt Lake Center
12:33AM 46.7886 -112.5300 303° West 198 228 14,000  Level Salt Lake Center
12:34AM 46.8128 -112.6017 296° West 198 228 14,000  Level Salt Lake Center
12:35AM 46.8356 -112.6761 294° West 200 230 14,000  Level Salt Lake Center
12:36AM 46.8583 -112.7500 294° West 200 230 14,100  Climbing Salt Lake Center
12:37AM 46.8839 -112.8217 298° West 199 229 14,100  Level Salt Lake Center
12:38AM 46.9131 -112.8919 301° West 202 232 14,200 -60 Climbing Salt Lake Center
12:39AM 46.9358 -112.9703 293° West 201 231 14,000 -60 Descending Salt Lake Center
12:40AM 46.9586 -113.0431 295° West 199 229 14,100 -120 Climbing Salt Lake Center
12:41AM 46.9864 -113.1314 295° West 200 230 13,800 -120 Descending Salt Lake Center
12:42AM 47.0144 -113.2000 301° West 199 229 13,900 180 Climbing Salt Lake Center
12:43AM 47.0389 -113.2725 296° West 199 229 14,200 120 Climbing Salt Lake Center
12:44AM 47.0664 -113.3456 299° West 204 235 14,200 -420 Level Salt Lake Center
12:45AM 47.0933 -113.4219 297° West 211 243 13,400 -780 Descending Salt Lake Center
12:46AM 47.1217 -113.5031 297° West 219 252 12,700 -720 Descending Salt Lake Center
12:47AM 47.1425 -113.5911 289° West 223 257 12,000 -360 Descending Salt Lake Center
12:48AM 47.1672 -113.6753 293° West 225 259 12,000  Level Salt Lake Center
12:49AM 47.1953 -113.7511 299° West 221 254 12,100 120 Climbing Salt Lake Center
12:50AM 47.2250 -113.8222 302° West 214 246 12,300 -120 Climbing Salt Lake Center
12:51AM 47.2542 -113.8892 303° West 205 236 11,900 -240 Descending Salt Lake Center
12:52AM 47.2822 -113.9578 301° West 197 227 11,900  Level Salt Lake Center
12:53AM 47.3108 -114.0369 298° West 184 212 11,900  Level Salt Lake Center
12:54AM 47.3314 -114.1036 294° West 180 207 11,900 -240 Level Salt Lake Center
12:55AM 47.3300 -114.1814 269° West 191 220 11,500 -480 Descending Salt Lake Center
12:56AM 47.3125 -114.2608 252° West 202 232 11,000 -540 Descending Salt Lake Center
12:57AM 47.2886 -114.3381 246° West 205 236 10,500 -180 Descending Salt Lake Center
12:58AM 47.2658 -114.4153 247° West 206 237 10,700  Climbing Salt Lake Center
12:59AM 47.2303 -114.4747 229° Southwest 196 226 10,500 -60 Descending Salt Lake Center
01:00AM 47.1925 -114.5347 227° Southwest 199 229 10,600 -780 Climbing Salt Lake Center
01:01AM 47.1447 -114.4867 146° Southeast 258 297 9,000 -1,020 Descending Salt Lake Center
01:02AM 47.0997 -114.4075 130° Southeast 235 270 8,600 -780 Descending Salt Lake Center
01:03AM 47.0622 -114.3403 129° Southeast 216 249 7,500 -1,080 Descending Salt Lake Center
01:04AM 47.0261 -114.2767 130° Southeast 208 239 6,500 -1,140 Descending Salt Lake Center
01:05AM 46.9936 -114.2275 134° Southeast 168 193 5,300 -960 Descending Salt Lake Center
01:06AM 46.9700 -114.1814 127° Southeast 148 170 4,600 -660 Descending Salt Lake Center
01:07AM 46.9439 -114.1397 133° Southeast 133 153 4,000 -660 Descending Salt Lake Center
01:08AM 46.9231 -114.1042 131° Southeast 135 155 3,300 -720 Descending Salt Lake Center